Terminal Aerodrome Forecast
Issued by NWS Portland, ME

Home | Current Version | Previous Version | Text Only | Print | Product List | Glossary On
Versions: 1 2 3 4 5 6 7 8 9 10 11 12 13 14 15 16
000
FTUS41 KGYX 060520
TAFCON
TAF
KCON 060520Z 0606/0706 33007KT P6SM SKC
     FM060700 32005KT P6SM SKC
     FM061500 26004KT P6SM SKC
     FM070000 VRB03KT P6SM OVC250=

USA.gov is the U.S. government's official web portal to all federal, state and local government web resources and services.